Time,TemperatureF,DewpointF,PressureIn,WindDirection,WindDirectionDegrees,WindSpeedMPH,WindSpeedGustMPH,Humidity,HourlyPrecipIn,Conditions,Clouds,dailyrainin,SolarRadiationWatts/m^2,SoftwareType,DateUTC
2013-08-11 00:00:00,57.7,50.5,29.97,West,271,0.0,0.0,77,0.00,,,0.00,0,Wunderground v.1.15,2013-08-11 07:00:00,
2013-08-11 00:10:00,58.7,50.1,29.97,West,271,0.0,0.0,73,0.00,,,0.00,0,Wunderground v.1.15,2013-08-11 07:10:00,
2013-08-11 00:20:00,57.7,49.8,29.97,West,271,0.0,0.0,75,0.00,,,0.00,0,Wunderground v.1.15,2013-08-11 07:20:00,
2013-08-11 00:25:00,56.4,49.3,29.97,West,271,0.0,0.0,77,0.00,,,0.00,0,Wunderground v.1.15,2013-08-11 07:25:00,
2013-08-11 00:30:00,55.8,49.7,29.97,West,271,0.0,0.0,80,0.00,,,0.00,0,Wunderground v.1.15,2013-08-11 07:30:00,
2013-08-11 00:35:00,55.6,49.2,29.97,West,271,0.0,0.0,79,0.00,,,0.00,0,Wunderground v.1.15,2013-08-11 07:35:00,
2013-08-11 00:40:00,55.9,49.8,29.97,West,271,0.0,0.0,80,0.00,,,0.00,0,Wunderground v.1.15,2013-08-11 07:40:00,
2013-08-11 00:45:00,56.2,49.8,29.97,West,271,0.0,0.0,79,0.00,,,0.00,0,Wunderground v.1.15,2013-08-11 07:45:00,
2013-08-11 00:55:00,55.9,49.8,29.97,West,271,0.0,0.0,80,0.00,,,0.00,0,Wunderground v.1.15,2013-08-11 07:55:00,
2013-08-11 01:05:00,56.1,49.3,29.97,West,271,0.0,0.0,78,0.00,,,0.00,0,Wunderground v.1.15,2013-08-11 08:05:00,
2013-08-11 01:10:00,55.3,48.9,29.97,West,271,0.0,0.0,79,0.00,,,0.00,0,Wunderground v.1.15,2013-08-11 08:10:00,
2013-08-11 01:15:00,55.2,48.8,29.97,West,271,0.0,0.0,79,0.00,,,0.00,0,Wunderground v.1.15,2013-08-11 08:15:00,
2013-08-11 01:20:00,55.3,49.2,29.97,West,271,0.0,0.0,80,0.00,,,0.00,0,Wunderground v.1.15,2013-08-11 08:20:00,
2013-08-11 01:30:00,55.7,49.6,29.97,West,271,0.0,0.0,80,0.00,,,0.00,0,Wunderground v.1.15,2013-08-11 08:30:00,
2013-08-11 01:35:00,55.7,49.6,29.97,West,271,0.0,0.0,80,0.00,,,0.00,0,Wunderground v.1.15,2013-08-11 08:35:00,
2013-08-11 01:40:00,55.4,49.3,29.97,West,271,0.0,0.0,80,0.00,,,0.00,0,Wunderground v.1.15,2013-08-11 08:40:00,
2013-08-11 01:45:00,55.4,49.7,29.97,West,271,0.0,0.0,81,0.00,,,0.00,0,Wunderground v.1.15,2013-08-11 08:45:00,
2013-08-11 01:50:00,55.3,49.6,29.97,West,271,0.0,0.0,81,0.00,,,0.00,0,Wunderground v.1.15,2013-08-11 08:50:00,
2013-08-11 02:00:00,54.5,49.1,29.97,West,271,0.0,0.0,82,0.00,,,0.00,0,Wunderground v.1.15,2013-08-11 09:00:00,
2013-08-11 02:10:00,54.5,49.1,29.97,West,271,0.0,0.0,82,0.00,,,0.00,0,Wunderground v.1.15,2013-08-11 09:10:00,
2013-08-11 02:15:00,54.5,49.1,29.97,West,271,0.0,0.0,82,0.00,,,0.00,0,Wunderground v.1.15,2013-08-11 09:15:00,
2013-08-11 02:20:00,54.2,49.1,29.97,West,271,0.0,0.0,83,0.00,,,0.00,0,Wunderground v.1.15,2013-08-11 09:20:00,
2013-08-11 02:25:00,54.1,49.1,29.97,West,271,0.0,0.0,83,0.00,,,0.00,0,Wunderground v.1.15,2013-08-11 09:25:00,
2013-08-11 02:30:00,53.9,48.9,29.97,West,260,0.0,0.0,83,0.00,,,0.00,0,Wunderground v.1.15,2013-08-11 09:30:00,
2013-08-11 02:40:00,53.3,48.9,29.97,South,175,0.0,0.0,85,0.00,,,0.00,0,Wunderground v.1.15,2013-08-11 09:40:00,
2013-08-11 02:45:00,53.3,48.6,29.98,South,175,0.0,0.0,84,0.00,,,0.00,0,Wunderground v.1.15,2013-08-11 09:45:00,
2013-08-11 02:50:00,53.2,48.5,29.98,South,175,0.0,0.0,84,0.00,,,0.00,0,Wunderground v.1.15,2013-08-11 09:50:00,
2013-08-11 03:00:00,52.6,48.2,29.98,South,175,0.0,0.0,85,0.00,,,0.00,0,Wunderground v.1.15,2013-08-11 10:00:00,
2013-08-11 03:10:00,53.4,49.0,29.98,South,173,0.0,0.0,85,0.00,,,0.00,0,Wunderground v.1.15,2013-08-11 10:10:00,
2013-08-11 03:20:00,53.3,48.9,29.98,South,173,0.0,0.0,85,0.00,,,0.00,0,Wunderground v.1.15,2013-08-11 10:20:00,
2013-08-11 03:25:00,53.5,48.8,29.98,South,173,0.0,0.0,84,0.00,,,0.00,0,Wunderground v.1.15,2013-08-11 10:25:00,
2013-08-11 03:30:00,53.4,49.0,29.98,South,173,0.0,0.0,85,0.00,,,0.00,0,Wunderground v.1.15,2013-08-11 10:30:00,
2013-08-11 03:35:00,53.2,48.8,29.98,South,173,0.0,0.0,85,0.00,,,0.00,0,Wunderground v.1.15,2013-08-11 10:35:00,
2013-08-11 03:40:00,53.2,48.8,29.98,South,173,0.0,0.0,85,0.00,,,0.00,0,Wunderground v.1.15,2013-08-11 10:40:00,
2013-08-11 03:50:00,53.8,49.4,29.98,SSE,167,0.0,0.0,85,0.00,,,0.00,0,Wunderground v.1.15,2013-08-11 10:50:00,
2013-08-11 03:55:00,54.1,49.7,29.98,SSE,161,0.0,0.0,85,0.00,,,0.00,0,Wunderground v.1.15,2013-08-11 10:55:00,
2013-08-11 04:00:00,54.4,49.7,29.98,SE,143,0.0,0.0,84,0.00,,,0.00,0,Wunderground v.1.15,2013-08-11 11:00:00,
2013-08-11 04:10:00,55.0,49.9,29.98,SE,138,0.0,1.0,83,0.00,,,0.00,0,Wunderground v.1.15,2013-08-11 11:10:00,
2013-08-11 04:15:00,55.2,49.8,29.98,SE,145,0.0,1.0,82,0.00,,,0.00,0,Wunderground v.1.15,2013-08-11 11:15:00,
2013-08-11 04:25:00,55.1,49.4,29.98,SE,134,0.0,0.0,81,0.00,,,0.00,0,Wunderground v.1.15,2013-08-11 11:25:00,
2013-08-11 04:30:00,55.0,49.6,29.98,SE,142,0.0,0.0,82,0.00,,,0.00,0,Wunderground v.1.15,2013-08-11 11:30:00,
2013-08-11 04:35:00,54.6,49.2,29.98,SSE,151,0.0,0.0,82,0.00,,,0.00,0,Wunderground v.1.15,2013-08-11 11:35:00,
2013-08-11 04:45:00,54.0,49.0,29.98,SSE,148,0.0,0.0,83,0.00,,,0.00,0,Wunderground v.1.15,2013-08-11 11:45:00,
2013-08-11 04:54:00,53.5,48.8,29.98,SSE,167,0.0,4.0,84,0.00,,,0.00,0,Wunderground v.1.15,2013-08-11 11:54:00,
2013-08-11 05:00:00,53.4,48.7,29.98,SSE,154,0.0,0.0,84,0.00,,,0.00,0,Wunderground v.1.15,2013-08-11 12:00:00,
2013-08-11 05:10:00,53.2,48.5,29.98,SSE,150,0.0,0.0,84,0.00,,,0.00,0,Wunderground v.1.15,2013-08-11 12:10:00,
2013-08-11 05:15:00,53.2,48.5,29.98,SSE,150,0.0,0.0,84,0.00,,,0.00,0,Wunderground v.1.15,2013-08-11 12:15:00,
2013-08-11 05:20:00,53.1,48.4,29.98,SSE,150,0.0,0.0,84,0.00,,,0.00,0,Wunderground v.1.15,2013-08-11 12:20:00,
2013-08-11 05:25:00,53.0,48.3,29.99,SSE,150,0.0,0.0,84,0.00,,,0.00,0,Wunderground v.1.15,2013-08-11 12:25:00,
2013-08-11 05:30:00,52.8,48.1,29.99,SSE,150,0.0,0.0,84,0.00,,,0.00,0,Wunderground v.1.15,2013-08-11 12:30:00,
2013-08-11 05:35:00,52.4,47.7,29.99,SSE,150,0.0,0.0,84,0.00,,,0.00,0,Wunderground v.1.15,2013-08-11 12:35:00,
2013-08-11 05:44:00,51.9,47.8,29.99,SSE,152,0.0,0.0,86,0.00,,,0.00,0,Wunderground v.1.15,2013-08-11 12:44:00,
2013-08-11 05:50:00,51.7,47.6,29.99,SSE,152,0.0,0.0,86,0.00,,,0.00,0,Wunderground v.1.15,2013-08-11 12:50:00,
2013-08-11 06:00:00,51.6,47.5,29.99,SSE,152,0.0,0.0,86,0.00,,,0.00,0,Wunderground v.1.15,2013-08-11 13:00:00,
2013-08-11 06:09:00,51.2,47.2,30.00,SSE,152,0.0,0.0,86,0.00,,,0.00,5,Wunderground v.1.15,2013-08-11 13:09:00,
2013-08-11 06:14:00,50.8,46.8,30.00,SSE,152,0.0,0.0,86,0.00,,,0.00,7,Wunderground v.1.15,2013-08-11 13:14:00,
2013-08-11 06:20:00,50.9,47.5,30.00,SSE,152,0.0,0.0,88,0.00,,,0.00,7,Wunderground v.1.15,2013-08-11 13:20:00,
2013-08-11 06:30:00,51.6,47.5,30.00,SSE,152,0.0,0.0,86,0.00,,,0.00,12,Wunderground v.1.15,2013-08-11 13:30:00,
2013-08-11 06:40:00,52.2,47.8,30.00,SSE,152,0.0,0.0,85,0.00,,,0.00,19,Wunderground v.1.15,2013-08-11 13:40:00,
2013-08-11 06:50:00,52.7,48.0,30.01,SSE,152,0.0,0.0,84,0.00,,,0.00,51,Wunderground v.1.15,2013-08-11 13:50:00,
2013-08-11 07:00:00,53.2,48.5,30.01,SSE,152,0.0,0.0,84,0.00,,,0.00,72,Wunderground v.1.15,2013-08-11 14:00:00,
2013-08-11 07:10:00,54.1,49.4,30.00,SSE,152,0.0,0.0,84,0.00,,,0.00,95,Wunderground v.1.15,2013-08-11 14:10:00,
2013-08-11 07:15:00,54.8,49.7,30.01,SSE,152,0.0,0.0,83,0.00,,,0.00,111,Wunderground v.1.15,2013-08-11 14:15:00,
2013-08-11 07:20:00,55.3,49.6,30.00,SSE,152,0.0,0.0,81,0.00,,,0.00,125,Wunderground v.1.15,2013-08-11 14:20:00,
2013-08-11 07:29:00,56.1,49.7,30.00,SSE,152,0.0,0.0,79,0.00,,,0.00,162,Wunderground v.1.15,2013-08-11 14:29:00,
2013-08-11 07:34:00,56.7,50.3,30.00,SSE,152,0.0,0.0,79,0.00,,,0.00,179,Wunderground v.1.15,2013-08-11 14:34:00,
2013-08-11 07:39:00,56.9,49.8,30.00,SSE,151,0.0,0.0,77,0.00,,,0.00,197,Wunderground v.1.15,2013-08-11 14:39:00,
2013-08-11 07:45:00,57.3,50.1,30.00,SE,138,0.0,0.0,77,0.00,,,0.00,213,Wunderground v.1.15,2013-08-11 14:45:00,
2013-08-11 07:50:00,57.6,50.1,30.00,SE,137,0.0,0.0,76,0.00,,,0.00,230,Wunderground v.1.15,2013-08-11 14:50:00,
2013-08-11 07:55:00,58.4,50.5,30.00,SE,136,0.0,0.0,75,0.00,,,0.00,248,Wunderground v.1.15,2013-08-11 14:55:00,
2013-08-11 08:00:00,58.9,50.3,30.00,SE,136,0.0,0.0,73,0.00,,,0.00,265,Wunderground v.1.15,2013-08-11 15:00:00,
2013-08-11 08:09:00,59.5,49.7,30.00,SE,130,0.0,0.0,70,0.00,,,0.00,302,Wunderground v.1.15,2013-08-11 15:09:00,
2013-08-11 08:14:00,60.5,50.3,30.00,ESE,123,0.0,0.0,69,0.00,,,0.00,313,Wunderground v.1.15,2013-08-11 15:14:00,
2013-08-11 08:19:00,60.6,49.6,30.00,ESE,114,0.0,0.0,67,0.00,,,0.00,339,Wunderground v.1.15,2013-08-11 15:19:00,
2013-08-11 08:24:00,60.5,49.9,30.00,East,94,1.0,1.0,68,0.00,,,0.00,357,Wunderground v.1.15,2013-08-11 15:24:00,
2013-08-11 08:30:00,60.4,49.8,30.00,East,90,1.0,1.0,68,0.00,,,0.00,369,Wunderground v.1.15,2013-08-11 15:30:00,
2013-08-11 08:35:00,60.7,49.7,30.00,East,89,1.0,1.0,67,0.00,,,0.00,318,Wunderground v.1.15,2013-08-11 15:35:00,
2013-08-11 08:40:00,61.4,49.9,30.00,East,90,0.0,0.0,66,0.00,,,0.00,422,Wunderground v.1.15,2013-08-11 15:40:00,
2013-08-11 08:45:00,61.4,49.5,30.00,East,91,0.0,0.0,65,0.00,,,0.00,279,Wunderground v.1.15,2013-08-11 15:45:00,
2013-08-11 08:50:00,61.6,49.7,30.00,East,93,0.0,0.0,65,0.00,,,0.00,255,Wunderground v.1.15,2013-08-11 15:50:00,
2013-08-11 08:55:00,61.5,49.6,30.00,East,85,0.0,0.0,65,0.00,,,0.00,283,Wunderground v.1.15,2013-08-11 15:55:00,
2013-08-11 09:00:00,61.7,50.2,30.00,East,82,0.0,0.0,66,0.00,,,0.00,476,Wunderground v.1.15,2013-08-11 16:00:00,
2013-08-11 09:10:00,64.1,50.8,30.00,East,83,0.0,0.0,62,0.00,,,0.00,552,Wunderground v.1.15,2013-08-11 16:10:00,
2013-08-11 09:15:00,65.0,50.8,29.99,East,83,0.0,0.0,60,0.00,,,0.00,316,Wunderground v.1.15,2013-08-11 16:15:00,
2013-08-11 09:20:00,64.6,50.4,30.00,East,94,0.0,0.0,60,0.00,,,0.00,436,Wunderground v.1.15,2013-08-11 16:20:00,
2013-08-11 09:25:00,64.8,50.6,30.00,East,94,0.0,0.0,60,0.00,,,0.00,475,Wunderground v.1.15,2013-08-11 16:25:00,
2013-08-11 09:35:00,64.3,50.6,30.00,ENE,78,1.0,4.0,61,0.00,,,0.00,334,Wunderground v.1.15,2013-08-11 16:35:00,
2013-08-11 09:45:00,65.3,50.1,29.99,East,82,0.0,1.0,58,0.00,,,0.00,352,Wunderground v.1.15,2013-08-11 16:45:00,
2013-08-11 09:50:00,64.3,49.2,29.99,East,84,0.0,0.0,58,0.00,,,0.00,313,Wunderground v.1.15,2013-08-11 16:50:00,
2013-08-11 09:55:00,64.1,49.9,29.99,East,86,0.0,0.0,60,0.00,,,0.00,313,Wunderground v.1.15,2013-08-11 16:55:00,
2013-08-11 10:00:00,64.5,49.8,29.99,East,87,0.0,0.0,59,0.00,,,0.00,339,Wunderground v.1.15,2013-08-11 17:00:00,
2013-08-11 10:05:00,64.8,49.7,29.99,East,88,0.0,0.0,58,0.00,,,0.00,330,Wunderground v.1.15,2013-08-11 17:05:00,
2013-08-11 10:15:00,65.6,50.4,29.99,East,88,0.0,0.0,58,0.00,,,0.00,592,Wunderground v.1.15,2013-08-11 17:15:00,
2013-08-11 10:20:00,66.7,50.5,29.99,East,88,0.0,0.0,56,0.00,,,0.00,504,Wunderground v.1.15,2013-08-11 17:20:00,
2013-08-11 10:25:00,68.3,51.5,29.98,East,88,0.0,0.0,55,0.00,,,0.00,559,Wunderground v.1.15,2013-08-11 17:25:00,
2013-08-11 10:30:00,68.1,50.8,29.98,East,88,0.0,0.0,54,0.00,,,0.00,401,Wunderground v.1.15,2013-08-11 17:30:00,
2013-08-11 10:40:00,68.6,51.3,29.98,East,88,0.0,0.0,54,0.00,,,0.00,482,Wunderground v.1.15,2013-08-11 17:40:00,
2013-08-11 10:45:00,68.4,50.6,29.98,East,81,0.0,0.0,53,0.00,,,0.00,712,Wunderground v.1.15,2013-08-11 17:45:00,
2013-08-11 10:50:00,69.3,51.4,29.98,East,81,0.0,0.0,53,0.00,,,0.00,599,Wunderground v.1.15,2013-08-11 17:50:00,
2013-08-11 11:00:00,71.0,50.9,29.97,South,180,1.0,3.0,49,0.00,,,0.00,707,Wunderground v.1.15,2013-08-11 18:00:00,
2013-08-11 11:10:00,70.5,51.5,29.97,South,186,1.0,1.0,51,0.00,,,0.00,749,Wunderground v.1.15,2013-08-11 18:10:00,
2013-08-11 11:15:00,70.4,51.4,29.97,NE,45,0.0,1.0,51,0.00,,,0.00,842,Wunderground v.1.15,2013-08-11 18:15:00,
2013-08-11 11:25:00,69.8,51.4,29.96,ENE,72,1.0,3.0,52,0.00,,,0.00,670,Wunderground v.1.15,2013-08-11 18:25:00,
2013-08-11 11:34:00,71.5,51.3,29.96,WSW,239,0.0,0.0,49,0.00,,,0.00,548,Wunderground v.1.15,2013-08-11 18:34:00,
2013-08-11 11:39:00,73.8,51.1,29.96,SW,226,0.0,0.0,45,0.00,,,0.00,807,Wunderground v.1.15,2013-08-11 18:39:00,
2013-08-11 11:44:00,73.7,49.2,29.96,East,94,0.0,0.0,42,0.00,,,0.00,810,Wunderground v.1.15,2013-08-11 18:44:00,
2013-08-11 11:54:00,73.1,48.6,29.96,WSW,243,1.0,1.0,42,0.00,,,0.00,796,Wunderground v.1.15,2013-08-11 18:54:00,
2013-08-11 12:00:00,72.1,50.2,29.96,NNW,327,1.0,1.0,46,0.00,,,0.00,714,Wunderground v.1.15,2013-08-11 19:00:00,
2013-08-11 12:10:00,72.4,50.4,29.95,North,360,0.0,0.0,46,0.00,,,0.00,916,Wunderground v.1.15,2013-08-11 19:10:00,
2013-08-11 12:15:00,73.2,50.6,29.95,NNE,28,2.0,5.0,45,0.00,,,0.00,907,Wunderground v.1.15,2013-08-11 19:15:00,
2013-08-11 12:20:00,73.1,49.9,29.95,NE,34,3.0,3.0,44,0.00,,,0.00,853,Wunderground v.1.15,2013-08-11 19:20:00,
2013-08-11 12:25:00,73.8,49.3,29.95,NE,47,2.0,3.0,42,0.00,,,0.00,780,Wunderground v.1.15,2013-08-11 19:25:00,
2013-08-11 12:30:00,74.1,50.2,29.95,NE,54,0.0,0.0,43,0.00,,,0.00,642,Wunderground v.1.15,2013-08-11 19:30:00,
2013-08-11 12:40:00,73.4,48.3,29.94,ENE,58,1.0,1.0,41,0.00,,,0.00,772,Wunderground v.1.15,2013-08-11 19:40:00,
2013-08-11 12:45:00,73.7,49.2,29.94,North,355,0.0,1.0,42,0.00,,,0.00,666,Wunderground v.1.15,2013-08-11 19:45:00,
2013-08-11 12:50:00,75.1,47.8,29.94,NNE,12,0.0,0.0,38,0.00,,,0.00,821,Wunderground v.1.15,2013-08-11 19:50:00,
2013-08-11 12:55:00,75.3,49.3,29.94,East,81,0.0,0.0,40,0.00,,,0.00,981,Wunderground v.1.15,2013-08-11 19:55:00,
2013-08-11 13:00:00,75.3,49.3,29.94,NE,46,0.0,6.0,40,0.00,,,0.00,898,Wunderground v.1.15,2013-08-11 20:00:00,
2013-08-11 13:05:00,75.9,48.5,29.94,ENE,60,1.0,6.0,38,0.00,,,0.00,933,Wunderground v.1.15,2013-08-11 20:05:00,
2013-08-11 13:15:00,77.8,47.9,29.93,NE,37,0.0,0.0,35,0.00,,,0.00,928,Wunderground v.1.15,2013-08-11 20:15:00,
2013-08-11 13:20:00,78.2,46.7,29.93,SW,226,1.0,4.0,33,0.00,,,0.00,935,Wunderground v.1.15,2013-08-11 20:20:00,
2013-08-11 13:25:00,78.3,46.8,29.94,SW,229,3.0,4.0,33,0.00,,,0.00,958,Wunderground v.1.15,2013-08-11 20:25:00,
2013-08-11 13:35:00,77.4,45.2,29.93,WNW,294,1.0,3.0,32,0.00,,,0.00,779,Wunderground v.1.15,2013-08-11 20:35:00,
2013-08-11 13:45:00,80.2,45.9,29.93,SSW,202,0.0,0.0,30,0.00,,,0.00,930,Wunderground v.1.15,2013-08-11 20:45:00,
2013-08-11 13:55:00,78.0,45.7,29.92,WNW,296,1.0,1.0,32,0.00,,,0.00,726,Wunderground v.1.15,2013-08-11 20:55:00,
2013-08-11 14:05:00,80.4,47.0,29.92,SW,223,0.0,0.0,31,0.00,,,0.00,949,Wunderground v.1.15,2013-08-11 21:05:00,
2013-08-11 14:15:00,79.1,45.9,29.92,West,263,2.0,6.0,31,0.00,,,0.00,803,Wunderground v.1.15,2013-08-11 21:15:00,
2013-08-11 14:20:00,79.2,46.8,29.92,WNW,286,3.0,6.0,32,0.00,,,0.00,921,Wunderground v.1.15,2013-08-11 21:20:00,
2013-08-11 14:30:00,80.4,47.0,29.92,North,360,0.0,3.0,31,0.00,,,0.00,847,Wunderground v.1.15,2013-08-11 21:30:00,
2013-08-11 14:35:00,79.9,47.4,29.92,NNE,29,2.0,7.0,32,0.00,,,0.00,833,Wunderground v.1.15,2013-08-11 21:35:00,
2013-08-11 14:40:00,79.1,47.5,29.92,NNW,345,4.0,7.0,33,0.00,,,0.00,831,Wunderground v.1.15,2013-08-11 21:40:00,
2013-08-11 14:45:00,78.6,47.1,29.92,NNW,341,5.0,5.0,33,0.00,,,0.00,186,Wunderground v.1.15,2013-08-11 21:45:00,
2013-08-11 14:50:00,78.0,46.6,29.91,NNW,332,2.0,5.0,33,0.00,,,0.00,809,Wunderground v.1.15,2013-08-11 21:50:00,
2013-08-11 14:55:00,79.1,48.3,29.91,NNW,329,1.0,3.0,34,0.00,,,0.00,795,Wunderground v.1.15,2013-08-11 21:55:00,
2013-08-11 15:00:00,78.8,47.3,29.91,North,350,3.0,3.0,33,0.00,,,0.00,796,Wunderground v.1.15,2013-08-11 22:00:00,
2013-08-11 15:05:00,79.4,48.6,29.91,NE,44,4.0,4.0,34,0.00,,,0.00,798,Wunderground v.1.15,2013-08-11 22:05:00,
2013-08-11 15:15:00,79.2,48.4,29.91,NNW,348,6.0,6.0,34,0.00,,,0.00,812,Wunderground v.1.15,2013-08-11 22:15:00,
2013-08-11 15:19:00,78.8,48.1,29.91,North,360,5.0,5.0,34,0.00,,,0.00,169,Wunderground v.1.15,2013-08-11 22:19:00,
2013-08-11 15:24:00,79.2,48.4,29.91,NNE,15,3.0,5.0,34,0.00,,,0.00,749,Wunderground v.1.15,2013-08-11 22:24:00,
2013-08-11 15:30:00,79.3,47.7,29.90,North,5,2.0,3.0,33,0.00,,,0.00,759,Wunderground v.1.15,2013-08-11 22:30:00,
2013-08-11 15:35:00,79.7,48.8,29.90,NE,36,3.0,5.0,34,0.00,,,0.00,744,Wunderground v.1.15,2013-08-11 22:35:00,
2013-08-11 15:44:00,80.2,48.5,29.90,North,355,4.0,4.0,33,0.00,,,0.00,724,Wunderground v.1.15,2013-08-11 22:44:00,
2013-08-11 15:49:00,79.7,47.2,29.90,WNW,297,3.0,3.0,32,0.00,,,0.00,691,Wunderground v.1.15,2013-08-11 22:49:00,
2013-08-11 15:54:00,80.1,48.4,29.90,NNW,333,2.0,4.0,33,0.00,,,0.00,696,Wunderground v.1.15,2013-08-11 22:54:00,
2013-08-11 16:00:00,80.8,47.3,29.90,NW,315,2.0,2.0,31,0.00,,,0.00,700,Wunderground v.1.15,2013-08-11 23:00:00,
2013-08-11 16:09:00,79.4,46.1,29.89,WNW,292,4.0,4.0,31,0.00,,,0.00,691,Wunderground v.1.15,2013-08-11 23:09:00,
2013-08-11 16:15:00,79.6,46.3,29.89,NW,317,3.0,4.0,31,0.00,,,0.00,520,Wunderground v.1.15,2013-08-11 23:15:00,
2013-08-11 16:25:00,79.8,46.5,29.89,West,275,2.0,2.0,31,0.00,,,0.00,218,Wunderground v.1.15,2013-08-11 23:25:00,
2013-08-11 16:30:00,80.0,46.6,29.89,West,259,3.0,4.0,31,0.00,,,0.00,636,Wunderground v.1.15,2013-08-11 23:30:00,
2013-08-11 16:35:00,79.2,45.9,29.89,NNE,15,2.0,4.0,31,0.00,,,0.00,295,Wunderground v.1.15,2013-08-11 23:35:00,
2013-08-11 16:45:00,79.7,46.4,29.89,North,11,1.0,5.0,31,0.00,,,0.00,555,Wunderground v.1.15,2013-08-11 23:45:00,
2013-08-11 16:55:00,80.9,47.4,29.88,WNW,286,3.0,5.0,31,0.00,,,0.00,578,Wunderground v.1.15,2013-08-11 23:55:00,
2013-08-11 17:05:00,79.6,46.3,29.88,NW,326,4.0,4.0,31,0.00,,,0.00,548,Wunderground v.1.15,2013-08-12 00:05:00,
2013-08-11 17:14:00,80.3,46.9,29.88,WNW,285,5.0,9.0,31,0.00,,,0.00,613,Wunderground v.1.15,2013-08-12 00:14:00,
2013-08-11 17:19:00,80.9,47.4,29.88,WSW,244,3.0,3.0,31,0.00,,,0.00,596,Wunderground v.1.15,2013-08-12 00:19:00,
2013-08-11 17:24:00,81.9,47.4,29.88,WNW,291,2.0,3.0,30,0.00,,,0.00,589,Wunderground v.1.15,2013-08-12 00:24:00,
2013-08-11 17:30:00,81.5,47.1,29.88,WNW,287,3.0,3.0,30,0.00,,,0.00,566,Wunderground v.1.15,2013-08-12 00:30:00,
2013-08-11 17:35:00,81.5,47.1,29.88,WNW,294,3.0,3.0,30,0.00,,,0.00,512,Wunderground v.1.15,2013-08-12 00:35:00,
2013-08-11 17:45:00,80.5,47.1,29.87,West,271,3.0,6.0,31,0.00,,,0.00,489,Wunderground v.1.15,2013-08-12 00:45:00,
2013-08-11 17:50:00,81.2,46.8,29.88,West,279,6.0,9.0,30,0.00,,,0.00,427,Wunderground v.1.15,2013-08-12 00:50:00,
2013-08-11 17:55:00,80.5,46.2,29.87,West,271,8.0,9.0,30,0.00,,,0.00,469,Wunderground v.1.15,2013-08-12 00:55:00,
2013-08-11 18:05:00,80.0,45.8,29.87,SW,234,6.0,10.0,30,0.00,,,0.00,438,Wunderground v.1.15,2013-08-12 01:05:00,
2013-08-11 18:14:00,79.9,45.7,29.88,WSW,255,9.0,10.0,30,0.00,,,0.00,424,Wunderground v.1.15,2013-08-12 01:14:00,
2013-08-11 18:20:00,79.7,45.5,29.88,West,269,9.0,11.0,30,0.00,,,0.00,392,Wunderground v.1.15,2013-08-12 01:20:00,
2013-08-11 18:30:00,80.2,45.9,29.87,WNW,289,7.0,10.0,30,0.00,,,0.00,376,Wunderground v.1.15,2013-08-12 01:30:00,
2013-08-11 18:35:00,80.1,45.9,29.87,NNW,327,6.0,10.0,30,0.00,,,0.00,367,Wunderground v.1.15,2013-08-12 01:35:00,
2013-08-11 18:40:00,79.5,46.2,29.87,West,266,7.0,10.0,31,0.00,,,0.00,281,Wunderground v.1.15,2013-08-12 01:40:00,
2013-08-11 18:45:00,79.3,46.9,29.87,WNW,290,7.0,10.0,32,0.00,,,0.00,257,Wunderground v.1.15,2013-08-12 01:45:00,
2013-08-11 18:55:00,78.9,46.5,29.87,WNW,290,7.0,7.0,32,0.00,,,0.00,221,Wunderground v.1.15,2013-08-12 01:55:00,
2013-08-11 19:00:00,78.4,46.9,29.88,WSW,257,7.0,7.0,33,0.00,,,0.00,195,Wunderground v.1.15,2013-08-12 02:00:00,
2013-08-11 19:10:00,77.6,47.8,29.87,West,268,9.0,9.0,35,0.00,,,0.00,181,Wunderground v.1.15,2013-08-12 02:10:00,
2013-08-11 19:15:00,77.7,47.9,29.87,WSW,252,8.0,9.0,35,0.00,,,0.00,171,Wunderground v.1.15,2013-08-12 02:15:00,
2013-08-11 19:24:00,76.7,47.7,29.88,SW,232,10.0,12.0,36,0.00,,,0.00,123,Wunderground v.1.15,2013-08-12 02:24:00,
2013-08-11 19:30:00,76.3,48.1,29.88,West,259,10.0,10.0,37,0.00,,,0.00,88,Wunderground v.1.15,2013-08-12 02:30:00,
2013-08-11 19:40:00,75.8,48.4,29.88,West,271,5.0,5.0,38,0.00,,,0.00,58,Wunderground v.1.15,2013-08-12 02:40:00,
2013-08-11 19:45:00,75.6,48.9,29.88,WNW,289,4.0,5.0,39,0.00,,,0.00,28,Wunderground v.1.15,2013-08-12 02:45:00,
2013-08-11 19:50:00,75.1,49.1,29.88,West,273,4.0,6.0,40,0.00,,,0.00,25,Wunderground v.1.15,2013-08-12 02:50:00,
2013-08-11 19:55:00,74.6,49.3,29.89,West,277,4.0,6.0,41,0.00,,,0.00,26,Wunderground v.1.15,2013-08-12 02:55:00,
2013-08-11 20:05:00,73.9,50.0,29.89,West,273,4.0,5.0,43,0.00,,,0.00,12,Wunderground v.1.15,2013-08-12 03:05:00,
2013-08-11 20:10:00,73.5,50.2,29.89,WNW,295,5.0,6.0,44,0.00,,,0.00,9,Wunderground v.1.15,2013-08-12 03:10:00,
2013-08-11 20:14:00,73.1,49.9,29.89,WNW,282,4.0,6.0,44,0.00,,,0.00,5,Wunderground v.1.15,2013-08-12 03:14:00,
2013-08-11 20:20:00,72.6,50.0,29.89,West,262,2.0,2.0,45,0.00,,,0.00,0,Wunderground v.1.15,2013-08-12 03:20:00,
2013-08-11 20:40:00,71.5,49.6,29.89,West,262,0.0,0.0,46,0.00,,,0.00,0,Wunderground v.1.15,2013-08-12 03:40:00,
2013-08-11 20:49:00,71.0,49.7,29.89,West,262,0.0,0.0,47,0.00,,,0.00,0,Wunderground v.1.15,2013-08-12 03:49:00,
2013-08-11 20:54:00,70.6,50.0,29.90,West,262,0.0,0.0,48,0.00,,,0.00,0,Wunderground v.1.15,2013-08-12 03:54:00,
2013-08-11 21:00:00,70.3,50.2,29.90,West,262,0.0,0.0,49,0.00,,,0.00,0,Wunderground v.1.15,2013-08-12 04:00:00,
2013-08-11 21:05:00,70.0,50.0,29.90,West,262,0.0,0.0,49,0.00,,,0.00,0,Wunderground v.1.15,2013-08-12 04:05:00,
2013-08-11 21:10:00,69.5,49.5,29.90,West,262,0.0,0.0,49,0.00,,,0.00,0,Wunderground v.1.15,2013-08-12 04:10:00,
2013-08-11 21:15:00,69.1,49.7,29.91,West,262,0.0,0.0,50,0.00,,,0.00,0,Wunderground v.1.15,2013-08-12 04:15:00,
2013-08-11 21:24:00,69.0,50.1,29.91,West,262,0.0,0.0,51,0.00,,,0.00,0,Wunderground v.1.15,2013-08-12 04:24:00,
2013-08-11 21:29:00,68.8,50.5,29.91,West,262,0.0,0.0,52,0.00,,,0.00,0,Wunderground v.1.15,2013-08-12 04:29:00,
2013-08-11 21:34:00,68.8,50.5,29.91,West,262,0.0,0.0,52,0.00,,,0.00,0,Wunderground v.1.15,2013-08-12 04:34:00,
2013-08-11 21:39:00,68.8,50.5,29.92,West,262,0.0,0.0,52,0.00,,,0.00,0,Wunderground v.1.15,2013-08-12 04:39:00,
2013-08-11 21:44:00,68.6,50.8,29.92,WNW,296,0.0,0.0,53,0.00,,,0.00,0,Wunderground v.1.15,2013-08-12 04:44:00,
2013-08-11 21:49:00,68.5,52.2,29.92,NNW,336,0.0,4.0,56,0.00,,,0.00,0,Wunderground v.1.15,2013-08-12 04:49:00,
2013-08-11 21:55:00,68.3,52.5,29.92,NNE,32,2.0,5.0,57,0.00,,,0.00,0,Wunderground v.1.15,2013-08-12 04:55:00,
2013-08-11 22:00:00,68.1,52.8,29.92,NNE,19,4.0,4.0,58,0.00,,,0.00,0,Wunderground v.1.15,2013-08-12 05:00:00,
2013-08-11 22:10:00,67.9,53.5,29.92,NNE,30,5.0,6.0,60,0.00,,,0.00,0,Wunderground v.1.15,2013-08-12 05:10:00,
2013-08-11 22:15:00,67.8,53.4,29.92,NNE,19,6.0,6.0,60,0.00,,,0.00,0,Wunderground v.1.15,2013-08-12 05:15:00,
2013-08-11 22:20:00,67.5,53.1,29.92,North,360,4.0,4.0,60,0.00,,,0.00,0,Wunderground v.1.15,2013-08-12 05:20:00,
2013-08-11 22:30:00,67.3,53.4,29.92,NNE,22,5.0,5.0,61,0.00,,,0.00,0,Wunderground v.1.15,2013-08-12 05:30:00,
2013-08-11 22:35:00,67.1,53.6,29.92,NNE,19,4.0,5.0,62,0.00,,,0.00,0,Wunderground v.1.15,2013-08-12 05:35:00,
2013-08-11 22:40:00,66.9,53.5,29.92,North,350,2.0,3.0,62,0.00,,,0.00,0,Wunderground v.1.15,2013-08-12 05:40:00,
2013-08-11 22:45:00,66.7,53.3,29.93,North,355,1.0,4.0,62,0.00,,,0.00,0,Wunderground v.1.15,2013-08-12 05:45:00,
2013-08-11 22:50:00,66.5,53.5,29.93,North,5,2.0,4.0,63,0.00,,,0.00,0,Wunderground v.1.15,2013-08-12 05:50:00,
2013-08-11 23:00:00,66.3,53.8,29.92,NNE,12,3.0,6.0,64,0.00,,,0.00,0,Wunderground v.1.15,2013-08-12 06:00:00,
2013-08-11 23:10:00,65.9,53.4,29.92,NNW,341,2.0,2.0,64,0.00,,,0.00,0,Wunderground v.1.15,2013-08-12 06:10:00,
2013-08-11 23:15:00,65.7,53.6,29.92,NNW,342,0.0,2.0,65,0.00,,,0.00,0,Wunderground v.1.15,2013-08-12 06:15:00,
2013-08-11 23:20:00,65.6,53.5,29.93,North,355,1.0,4.0,65,0.00,,,0.00,0,Wunderground v.1.15,2013-08-12 06:20:00,
2013-08-11 23:25:00,65.6,53.9,29.92,NNW,348,3.0,5.0,66,0.00,,,0.00,0,Wunderground v.1.15,2013-08-12 06:25:00,
2013-08-11 23:35:00,65.5,53.8,29.93,NNW,348,4.0,5.0,66,0.00,,,0.00,0,Wunderground v.1.15,2013-08-12 06:35:00,
2013-08-11 23:40:00,65.5,53.8,29.93,North,349,3.0,3.0,66,0.00,,,0.00,0,Wunderground v.1.15,2013-08-12 06:40:00,
2013-08-11 23:45:00,65.2,53.6,29.93,NNW,343,3.0,4.0,66,0.00,,,0.00,0,Wunderground v.1.15,2013-08-12 06:45:00,
2013-08-11 23:50:00,65.1,53.5,29.93,NNW,346,2.0,2.0,66,0.00,,,0.00,0,Wunderground v.1.15,2013-08-12 06:50:00,
2013-08-11 23:55:00,64.8,53.6,29.93,NNW,346,1.0,2.0,67,0.00,,,0.00,0,Wunderground v.1.15,2013-08-12 06:55:00,